Murmansk, Russia
Current Conditions -  °F | °C
As of 5:30 PM on Friday 28 Nov 2014 (Local Time) from ULMM Reporting Station
Broken Clouds Broken Clouds  
Wind Chill: 17°   Ceiling: 800
Heat Index: 23°   Visibility: 6mi
Dew Point: 21°   Wind: 4mph
Humidity: 93%   Direction: NA
Pressure: 30.24"   Gusts: NA
Location:  68.96°N, 33.08°E
Report Text: ULMM 281430Z VRB02MPS 9999 BKN008 M05/M06 Q1024 NOSIG RMK OBSTOBSC QFE761 31690242
Loading
Personal Weather Stations






























Interactive Weather Map New forecast layout! Learn more

10-Day Weather Forecast

Advertisements
Track Severe Weather on mobile